createdAt,value
2019-05-14T00:00:52.732Z,5.00
2019-05-14T00:01:56.104Z,5.00
2019-05-14T00:03:02.363Z,5.10
2019-05-14T00:04:07.065Z,5.10
2019-05-14T00:05:12.204Z,5.00
2019-05-14T00:06:17.356Z,5.00
2019-05-14T00:07:22.307Z,5.00
2019-05-14T00:08:27.499Z,5.00
2019-05-14T00:09:32.296Z,5.00
2019-05-14T00:10:37.431Z,5.00
2019-05-14T00:11:42.174Z,5.00
2019-05-14T00:12:47.372Z,5.00
2019-05-14T00:13:52.116Z,5.00
2019-05-14T00:14:57.311Z,4.90
2019-05-14T00:16:01.847Z,4.90
2019-05-14T00:17:08.319Z,4.90
2019-05-14T00:18:12.743Z,4.80
2019-05-14T00:19:17.646Z,4.90
2019-05-14T00:20:22.662Z,4.80
2019-05-14T00:21:27.598Z,4.80
2019-05-14T00:22:32.086Z,4.80
2019-05-14T00:23:37.028Z,4.80
2019-05-14T00:24:41.867Z,4.80
2019-05-14T00:25:46.903Z,4.90
2019-05-14T00:26:51.816Z,4.90
2019-05-14T00:27:56.820Z,4.90
2019-05-14T00:29:01.652Z,4.80
2019-05-14T00:30:07.332Z,4.80
2019-05-14T00:31:12.201Z,4.70
2019-05-14T00:32:17.209Z,4.70
2019-05-14T00:33:22.502Z,4.70
2019-05-14T00:34:27.756Z,4.60
2019-05-14T00:35:35.358Z,4.60
2019-05-14T00:36:41.409Z,4.60
2019-05-14T00:37:45.173Z,4.70
2019-05-14T00:38:51.297Z,4.70
2019-05-14T00:39:56.097Z,4.70
2019-05-14T00:41:01.989Z,4.70
2019-05-14T00:42:06.717Z,4.70
2019-05-14T00:43:11.621Z,4.60
2019-05-14T00:44:15.970Z,4.60
2019-05-14T00:45:21.806Z,4.60
2019-05-14T00:46:26.409Z,4.60
2019-05-14T00:47:31.260Z,4.50
2019-05-14T00:48:35.890Z,4.50
2019-05-14T00:49:42.487Z,4.40
2019-05-14T00:50:46.874Z,4.40
2019-05-14T00:51:52.089Z,4.30
2019-05-14T00:52:56.669Z,4.30
2019-05-14T00:54:01.827Z,4.20
2019-05-14T00:55:06.737Z,4.20
2019-05-14T00:56:11.693Z,4.10
2019-05-14T00:57:16.055Z,4.20
2019-05-14T00:58:21.746Z,4.20
2019-05-14T00:59:26.344Z,4.20
2019-05-14T01:00:31.443Z,4.20
2019-05-14T01:01:35.879Z,4.20
2019-05-14T01:02:41.521Z,4.30
2019-05-14T01:03:46.258Z,4.30
2019-05-14T01:04:51.750Z,4.30
2019-05-14T01:05:56.289Z,4.30
2019-05-14T01:07:01.704Z,4.30
2019-05-14T01:08:06.149Z,4.30
2019-05-14T01:09:11.410Z,4.30
2019-05-14T01:10:16.864Z,4.30
2019-05-14T01:11:22.901Z,4.30
2019-05-14T01:12:27.286Z,4.30
2019-05-14T01:13:32.160Z,4.30
2019-05-14T01:14:36.664Z,4.30
2019-05-14T01:15:41.643Z,4.30
2019-05-14T01:16:46.076Z,4.30
2019-05-14T01:17:51.564Z,4.20
2019-05-14T01:18:56.398Z,4.10
2019-05-14T01:20:03.125Z,4.20
2019-05-14T01:21:07.854Z,4.10
2019-05-14T01:22:13.906Z,4.10
2019-05-14T01:23:18.284Z,4.10
2019-05-14T01:24:23.180Z,4.10
2019-05-14T01:25:27.853Z,4.10
2019-05-14T01:26:32.828Z,4.10
2019-05-14T01:27:37.182Z,4.00
2019-05-14T01:28:42.027Z,4.00
2019-05-14T01:29:46.367Z,4.00
2019-05-14T01:30:52.023Z,3.90
2019-05-14T01:31:57.594Z,4.00
2019-05-14T01:33:02.480Z,4.00
2019-05-14T01:34:06.804Z,4.00
2019-05-14T01:35:13.179Z,3.90
2019-05-14T01:36:17.526Z,4.00
2019-05-14T01:37:22.423Z,3.90
2019-05-14T01:38:26.816Z,3.90
2019-05-14T01:39:32.204Z,3.80
2019-05-14T01:40:36.758Z,3.80
2019-05-14T01:41:42.259Z,3.80
2019-05-14T01:42:47.005Z,3.90
2019-05-14T01:43:51.873Z,3.90
2019-05-14T01:44:56.317Z,3.80
2019-05-14T01:46:01.867Z,3.80
2019-05-14T01:47:06.639Z,3.80
2019-05-14T01:48:11.808Z,3.80
2019-05-14T01:49:16.267Z,3.80
2019-05-14T01:50:21.565Z,3.80
2019-05-14T01:51:26.091Z,3.90
2019-05-14T01:52:31.805Z,3.90
2019-05-14T01:53:36.629Z,3.80
2019-05-14T01:54:42.755Z,3.80
2019-05-14T01:55:47.464Z,3.90
2019-05-14T01:56:54.013Z,3.80
2019-05-14T01:57:58.350Z,3.80
2019-05-14T01:59:03.266Z,3.80
2019-05-14T02:00:08.715Z,3.80
2019-05-14T02:01:13.628Z,3.80
2019-05-14T02:02:17.934Z,3.80
2019-05-14T02:03:23.204Z,3.80
2019-05-14T02:04:27.512Z,3.80
2019-05-14T02:05:32.461Z,3.70
2019-05-14T02:06:36.994Z,3.70
2019-05-14T02:07:42.182Z,3.70
2019-05-14T02:08:46.677Z,3.70
2019-05-14T02:09:51.954Z,3.80
2019-05-14T02:10:56.524Z,3.80
2019-05-14T02:12:02.206Z,3.80
2019-05-14T02:13:06.937Z,3.80
2019-05-14T02:14:11.948Z,3.80
2019-05-14T02:15:16.695Z,3.80
2019-05-14T02:16:21.949Z,3.70
2019-05-14T02:17:26.500Z,3.70
2019-05-14T02:18:33.193Z,3.70
2019-05-14T02:19:37.626Z,3.70
2019-05-14T02:20:43.271Z,3.70
2019-05-14T02:21:51.248Z,3.70
2019-05-14T02:22:56.207Z,3.80
2019-05-14T02:24:02.017Z,3.70
2019-05-14T02:25:07.890Z,3.70
2019-05-14T02:26:12.568Z,3.60
2019-05-14T02:27:17.459Z,3.60
2019-05-14T02:28:22.158Z,3.60
2019-05-14T02:29:27.295Z,3.60
2019-05-14T02:30:45.746Z,3.70
2019-05-14T02:31:39.297Z,3.70
2019-05-14T02:32:43.840Z,3.70
2019-05-14T02:33:50.314Z,3.60
2019-05-14T02:34:54.867Z,3.60
2019-05-14T02:36:00.295Z,3.50
2019-05-14T02:37:04.894Z,3.50
2019-05-14T02:38:10.884Z,3.40
2019-05-14T02:39:15.376Z,3.50
2019-05-14T02:40:20.656Z,3.40
2019-05-14T02:41:29.660Z,3.40
2019-05-14T02:42:33.291Z,3.30
2019-05-14T02:43:40.660Z,3.30
2019-05-14T02:44:44.439Z,3.30
2019-05-14T02:46:04.766Z,3.20
2019-05-14T02:46:55.667Z,3.20
2019-05-14T02:48:00.605Z,3.20
2019-05-14T02:49:05.789Z,3.20
2019-05-14T02:50:10.425Z,3.20
2019-05-14T02:51:19.547Z,3.30
2019-05-14T02:52:25.420Z,3.30
2019-05-14T02:53:30.383Z,3.30
2019-05-14T02:54:34.790Z,3.30
2019-05-14T02:55:39.690Z,3.30
2019-05-14T02:56:44.007Z,3.30
2019-05-14T02:57:50.123Z,3.30
2019-05-14T02:58:55.101Z,3.30
2019-05-14T03:00:00.225Z,3.30
2019-05-14T03:01:04.721Z,3.30
2019-05-14T03:02:10.377Z,3.30
2019-05-14T03:03:15.402Z,3.30
2019-05-14T03:04:20.338Z,3.30
2019-05-14T03:05:24.827Z,3.30
2019-05-14T03:06:29.869Z,3.30
2019-05-14T03:07:34.307Z,3.30
2019-05-14T03:08:39.343Z,3.30
2019-05-14T03:09:43.701Z,3.30
2019-05-14T03:10:50.366Z,3.30
2019-05-14T03:11:54.633Z,3.30
2019-05-14T03:12:59.778Z,3.30
2019-05-14T03:14:04.613Z,3.30
2019-05-14T03:15:09.994Z,3.30
2019-05-14T03:16:25.930Z,3.40
2019-05-14T03:17:22.797Z,3.40
2019-05-14T03:18:29.660Z,3.40
2019-05-14T03:19:34.956Z,3.40
2019-05-14T03:20:39.422Z,3.40
2019-05-14T03:21:44.394Z,3.50
2019-05-14T03:23:02.737Z,3.50
2019-05-14T03:23:55.894Z,3.50
2019-05-14T03:25:00.450Z,3.60
2019-05-14T03:26:05.349Z,3.70
2019-05-14T03:27:10.170Z,3.80
2019-05-14T03:28:15.310Z,3.80
2019-05-14T03:29:25.546Z,3.80
2019-05-14T03:30:32.324Z,3.90
2019-05-14T03:31:34.270Z,4.00
2019-05-14T03:32:42.368Z,4.00
2019-05-14T03:33:45.231Z,4.10
2019-05-14T03:34:53.166Z,4.10
2019-05-14T03:36:07.464Z,4.20
2019-05-14T03:37:04.606Z,4.20
2019-05-14T03:38:09.603Z,4.20
2019-05-14T03:39:15.015Z,4.30
2019-05-14T03:40:19.620Z,4.30
2019-05-14T03:41:24.683Z,4.30
2019-05-14T03:42:29.369Z,4.40
2019-05-14T03:43:34.389Z,4.40
2019-05-14T03:44:39.976Z,4.40
2019-05-14T03:45:45.206Z,4.40
2019-05-14T03:46:55.156Z,4.50
2019-05-14T03:47:58.916Z,4.50
2019-05-14T03:49:03.534Z,4.50
2019-05-14T03:50:10.165Z,4.50
2019-05-14T03:51:15.392Z,4.50
2019-05-14T03:52:20.466Z,4.60
2019-05-14T03:53:24.795Z,4.60
2019-05-14T03:54:31.218Z,4.60
2019-05-14T03:55:35.636Z,4.60
2019-05-14T03:56:40.552Z,4.60
2019-05-14T03:57:44.898Z,4.60
2019-05-14T03:58:49.877Z,4.60
2019-05-14T03:59:54.216Z,4.60
2019-05-14T04:01:02.305Z,4.70
2019-05-14T04:02:09.748Z,4.70
2019-05-14T04:03:14.160Z,4.80
2019-05-14T04:04:19.573Z,4.80
2019-05-14T04:05:24.925Z,4.80
2019-05-14T04:06:30.510Z,4.90
2019-05-14T04:07:39.378Z,5.00
2019-05-14T04:08:44.333Z,5.00
2019-05-14T04:09:50.644Z,5.10
2019-05-14T04:10:59.096Z,5.10
2019-05-14T04:12:05.006Z,5.20
2019-05-14T04:13:12.299Z,5.20
2019-05-14T04:14:20.135Z,5.30
2019-05-14T04:15:29.862Z,5.30
2019-05-14T04:16:39.875Z,5.40
2019-05-14T04:17:45.546Z,5.50
2019-05-14T04:18:51.219Z,5.60
2019-05-14T04:19:59.988Z,5.80
2019-05-14T04:21:09.945Z,5.80
2019-05-14T04:22:14.840Z,5.90
2019-05-14T04:23:21.245Z,6.10
2019-05-14T04:24:29.616Z,6.50
2019-05-14T04:25:38.931Z,6.70
2019-05-14T04:27:00.972Z,7.20
2019-05-14T04:27:54.907Z,7.70
2019-05-14T04:29:01.217Z,8.10
2019-05-14T04:30:09.416Z,8.50
2019-05-14T04:31:14.559Z,8.90
2019-05-14T04:32:21.603Z,9.10
2019-05-14T04:33:30.369Z,9.40
2019-05-14T04:34:34.547Z,9.90
2019-05-14T04:35:40.201Z,10.40
2019-05-14T04:36:45.629Z,10.70
2019-05-14T04:37:50.284Z,11.20
2019-05-14T04:38:55.679Z,11.30
2019-05-14T04:40:00.237Z,11.40
2019-05-14T04:41:05.199Z,11.70
2019-05-14T04:42:10.018Z,11.70
2019-05-14T04:43:15.124Z,11.90
2019-05-14T04:44:19.763Z,12.20
2019-05-14T04:45:24.709Z,12.30
2019-05-14T04:46:30.218Z,12.10
2019-05-14T04:47:37.391Z,12.00
2019-05-14T04:48:43.229Z,11.90
2019-05-14T04:49:50.489Z,11.90
2019-05-14T04:50:54.487Z,11.70
2019-05-14T04:51:59.736Z,11.50
2019-05-14T04:53:04.341Z,11.20
2019-05-14T04:54:09.785Z,11.00
2019-05-14T04:55:14.594Z,10.60
2019-05-14T04:56:19.948Z,10.40
2019-05-14T04:57:25.633Z,10.30
2019-05-14T04:58:30.843Z,10.40
2019-05-14T04:59:35.239Z,10.60
2019-05-14T05:00:40.278Z,11.00
2019-05-14T05:01:44.736Z,11.30
2019-05-14T05:02:50.123Z,11.60
2019-05-14T05:03:54.677Z,11.90
2019-05-14T05:04:59.764Z,12.20
2019-05-14T05:06:04.181Z,12.60
2019-05-14T05:07:10.083Z,12.80
2019-05-14T05:08:14.786Z,13.00
2019-05-14T05:09:20.239Z,13.00
2019-05-14T05:10:24.867Z,13.10
2019-05-14T05:11:29.862Z,13.10
2019-05-14T05:12:34.269Z,13.10
2019-05-14T05:13:39.941Z,13.20
2019-05-14T05:14:45.210Z,13.50
2019-05-14T05:15:50.185Z,13.70
2019-05-14T05:16:54.522Z,14.00
2019-05-14T05:17:59.394Z,14.00
2019-05-14T05:19:03.742Z,13.90
2019-05-14T05:20:10.001Z,13.80
2019-05-14T05:21:15.105Z,13.90
2019-05-14T05:22:20.009Z,14.00
2019-05-14T05:23:24.356Z,14.10
2019-05-14T05:24:29.418Z,14.10
2019-05-14T05:25:34.014Z,14.20
2019-05-14T05:26:39.378Z,14.20
2019-05-14T05:27:43.814Z,14.30
2019-05-14T05:29:02.284Z,14.30
2019-05-14T05:29:54.900Z,14.70
2019-05-14T05:31:00.134Z,15.00
2019-05-14T05:32:04.539Z,15.00
2019-05-14T05:33:09.514Z,14.90
2019-05-14T05:34:14.017Z,15.00
2019-05-14T05:35:18.964Z,15.30
2019-05-14T05:36:23.675Z,15.20
2019-05-14T05:37:29.372Z,15.20
2019-05-14T05:38:33.922Z,15.30
2019-05-14T05:39:38.965Z,15.60
2019-05-14T05:40:43.338Z,15.70
2019-05-14T05:41:49.217Z,15.80
2019-05-14T05:42:55.039Z,15.90
2019-05-14T05:43:59.920Z,16.00
2019-05-14T05:45:04.483Z,16.20
2019-05-14T05:46:09.431Z,15.70
2019-05-14T05:47:14.148Z,15.10
2019-05-14T05:48:19.098Z,14.60
2019-05-14T05:49:23.670Z,14.10
2019-05-14T05:50:28.893Z,13.90
2019-05-14T05:51:33.310Z,14.10
2019-05-14T05:52:38.841Z,14.20
2019-05-14T05:53:43.376Z,14.30
2019-05-14T05:54:49.080Z,14.50
2019-05-14T05:55:53.621Z,14.60
2019-05-14T05:56:59.783Z,14.50
2019-05-14T05:58:04.128Z,14.70
2019-05-14T05:59:09.712Z,14.80
2019-05-14T06:00:14.736Z,14.80
2019-05-14T06:01:19.921Z,14.90
2019-05-14T06:03:30.365Z,15.70
2019-05-14T06:04:35.581Z,15.80
2019-05-14T06:05:39.925Z,15.80
2019-05-14T06:06:48.051Z,16.10
2019-05-14T06:07:51.972Z,15.90
2019-05-14T06:08:58.321Z,15.70
2019-05-14T06:10:03.411Z,15.70
2019-05-14T06:11:08.581Z,15.60
2019-05-14T06:12:13.332Z,15.90
2019-05-14T06:13:18.422Z,16.30
2019-05-14T06:14:22.904Z,16.70
2019-05-14T06:15:44.186Z,16.80
2019-05-14T06:16:34.403Z,16.70
2019-05-14T06:17:39.504Z,16.90
2019-05-14T06:18:44.090Z,16.90
2019-05-14T06:19:49.031Z,17.30
2019-05-14T06:20:53.422Z,17.50
2019-05-14T06:21:59.950Z,18.00
2019-05-14T06:23:04.503Z,18.20
2019-05-14T06:24:09.617Z,18.10
2019-05-14T06:25:14.461Z,18.30
2019-05-14T06:26:19.701Z,18.30
2019-05-14T06:27:24.348Z,18.30
2019-05-14T06:28:33.298Z,18.50
2019-05-14T06:29:38.126Z,18.70
2019-05-14T06:30:42.853Z,18.70
2019-05-14T06:31:49.374Z,18.60
2019-05-14T06:32:53.826Z,18.90
2019-05-14T06:33:59.116Z,19.10
2019-05-14T06:35:04.522Z,19.00
2019-05-14T06:36:09.006Z,19.00
2019-05-14T06:37:14.402Z,19.20
2019-05-14T06:38:18.812Z,19.10
2019-05-14T06:39:23.752Z,19.30
2019-05-14T06:40:28.671Z,19.40
2019-05-14T06:41:33.712Z,19.50
2019-05-14T06:42:39.357Z,19.60
2019-05-14T06:43:44.859Z,19.50
2019-05-14T06:44:49.516Z,19.40
2019-05-14T06:45:54.583Z,19.20
2019-05-14T06:46:59.180Z,18.90
2019-05-14T06:48:04.164Z,19.10
2019-05-14T06:49:09.094Z,19.20
2019-05-14T06:50:14.860Z,19.00
2019-05-14T06:52:23.764Z,19.20
2019-05-14T06:53:29.313Z,19.30
2019-05-14T06:54:33.795Z,19.20
2019-05-14T06:55:39.407Z,19.10
2019-05-14T06:56:43.933Z,18.60
2019-05-14T06:57:48.890Z,18.70
2019-05-14T06:58:53.206Z,18.70
2019-05-14T06:59:58.912Z,18.70
2019-05-14T07:01:03.460Z,18.70
2019-05-14T07:02:08.843Z,19.00
2019-05-14T07:03:13.716Z,19.20
2019-05-14T07:04:18.704Z,19.40
2019-05-14T07:05:23.230Z,19.90
2019-05-14T07:06:29.090Z,20.10
2019-05-14T07:07:33.797Z,20.60
2019-05-14T07:08:39.189Z,20.70
2019-05-14T07:09:43.801Z,20.60
2019-05-14T07:10:48.769Z,20.90
2019-05-14T07:11:53.161Z,20.80
2019-05-14T07:12:59.266Z,20.70
2019-05-14T07:14:04.054Z,20.80
2019-05-14T07:15:09.531Z,20.90
2019-05-14T07:16:14.505Z,20.90
2019-05-14T07:17:19.399Z,21.00
2019-05-14T07:18:24.007Z,21.20
2019-05-14T07:19:29.640Z,21.20
2019-05-14T07:20:34.156Z,21.20
2019-05-14T07:21:40.401Z,21.20
2019-05-14T07:22:44.754Z,21.30
2019-05-14T07:23:49.789Z,21.20
2019-05-14T07:24:54.430Z,20.80
2019-05-14T07:25:59.375Z,20.80
2019-05-14T07:27:03.984Z,20.80
2019-05-14T07:28:09.037Z,20.90
2019-05-14T07:29:13.714Z,21.10
2019-05-14T07:30:19.422Z,21.10
2019-05-14T07:31:23.937Z,20.90
2019-05-14T07:32:28.929Z,21.10
2019-05-14T07:33:33.301Z,21.10
2019-05-14T07:34:38.931Z,21.40
2019-05-14T07:35:43.617Z,21.50
2019-05-14T07:36:49.104Z,21.60
2019-05-14T07:37:53.646Z,21.60
2019-05-14T07:39:00.283Z,21.60
2019-05-14T07:40:08.329Z,22.20
2019-05-14T07:41:12.670Z,22.60
2019-05-14T07:42:18.350Z,22.60
2019-05-14T07:43:23.612Z,22.90
2019-05-14T07:44:29.662Z,23.20
2019-05-14T07:45:34.836Z,23.00
2019-05-14T07:46:39.272Z,22.90
2019-05-14T07:47:44.161Z,22.70
2019-05-14T07:49:03.876Z,22.90
2019-05-14T07:49:55.170Z,22.90
2019-05-14T07:51:00.138Z,22.60
2019-05-14T07:52:05.325Z,22.50
2019-05-14T07:53:09.916Z,21.90
2019-05-14T07:54:15.048Z,21.50
2019-05-14T07:55:19.399Z,21.40
2019-05-14T07:56:24.428Z,21.60
2019-05-14T07:57:28.859Z,21.90
2019-05-14T07:58:33.827Z,22.20
2019-05-14T07:59:38.339Z,22.10
2019-05-14T08:00:43.416Z,21.60
2019-05-14T08:01:49.081Z,21.50
2019-05-14T08:02:54.191Z,21.30
2019-05-14T08:04:00.202Z,21.50
2019-05-14T08:05:05.812Z,22.00
2019-05-14T08:06:10.292Z,22.00
2019-05-14T08:07:17.817Z,21.90
2019-05-14T08:08:21.516Z,21.50
2019-05-14T08:09:28.247Z,21.40
2019-05-14T08:10:32.598Z,21.50
2019-05-14T08:11:38.757Z,21.30
2019-05-14T08:12:43.381Z,21.20
2019-05-14T08:13:49.369Z,21.10
2019-05-14T08:15:10.852Z,20.90
2019-05-14T08:16:00.808Z,20.60
2019-05-14T08:17:05.312Z,20.70
2019-05-14T08:18:10.594Z,21.00
2019-05-14T08:19:24.192Z,21.10
2019-05-14T08:20:22.103Z,21.20
2019-05-14T08:21:28.302Z,21.40
2019-05-14T08:22:33.285Z,21.60
2019-05-14T08:23:39.203Z,21.80
2019-05-14T08:24:44.571Z,21.70
2019-05-14T08:25:49.009Z,21.90
2019-05-14T08:26:54.043Z,21.80
2019-05-14T08:27:58.725Z,21.50
2019-05-14T08:29:03.725Z,21.20
2019-05-14T08:30:08.767Z,20.70
2019-05-14T08:31:14.360Z,20.50
2019-05-14T08:32:19.230Z,20.70
2019-05-14T08:33:24.404Z,20.80
2019-05-14T08:34:48.116Z,20.70
2019-05-14T08:35:53.304Z,20.80
2019-05-14T08:36:58.891Z,20.90
2019-05-14T08:38:08.333Z,20.90
2019-05-14T08:39:10.209Z,21.00
2019-05-14T08:40:17.220Z,20.90
2019-05-14T08:41:21.458Z,21.00
2019-05-14T08:42:26.353Z,20.50
2019-05-14T08:43:30.679Z,20.20
2019-05-14T08:44:35.591Z,20.00
2019-05-14T08:45:39.941Z,20.30
2019-05-14T08:46:45.314Z,20.20
2019-05-14T08:47:49.818Z,19.80
2019-05-14T08:48:54.671Z,19.30
2019-05-14T08:49:59.955Z,18.90
2019-05-14T08:51:05.518Z,18.80
2019-05-14T08:52:09.901Z,18.40
2019-05-14T08:53:15.397Z,18.00
2019-05-14T08:54:20.007Z,17.50
2019-05-14T08:55:24.909Z,17.50
2019-05-14T08:56:29.328Z,17.40
2019-05-14T08:57:34.342Z,17.20
2019-05-14T08:58:38.989Z,16.90
2019-05-14T08:59:43.986Z,16.80
2019-05-14T09:00:48.521Z,16.80
2019-05-14T09:02:02.371Z,17.00
2019-05-14T09:03:03.032Z,17.00
2019-05-14T09:04:08.823Z,16.80
2019-05-14T09:05:12.980Z,16.90
2019-05-14T09:06:18.557Z,17.30
2019-05-14T09:07:23.313Z,17.80
2019-05-14T09:08:30.082Z,18.50
2019-05-14T09:09:34.469Z,18.80
2019-05-14T09:10:40.199Z,18.60
2019-05-14T09:11:46.420Z,18.40
2019-05-14T09:12:51.533Z,17.90
2019-05-14T09:13:55.927Z,17.20
2019-05-14T09:15:00.885Z,16.50
2019-05-14T09:16:05.245Z,16.20
2019-05-14T09:17:10.245Z,16.00
2019-05-14T09:18:14.762Z,16.00
2019-05-14T09:19:20.797Z,16.10
2019-05-14T09:20:25.259Z,16.10
2019-05-14T09:21:30.263Z,16.10
2019-05-14T09:22:34.633Z,16.10
2019-05-14T09:23:39.666Z,16.30
2019-05-14T09:24:44.068Z,16.40
2019-05-14T09:25:53.183Z,16.30
2019-05-14T09:26:55.143Z,16.20
2019-05-14T09:28:00.084Z,15.80
2019-05-14T09:29:18.200Z,16.00
2019-05-14T09:30:12.727Z,16.30
2019-05-14T09:32:23.813Z,17.20
2019-05-14T09:33:18.710Z,16.70
2019-05-14T09:34:34.761Z,17.10
2019-05-14T09:35:10.305Z,17.30
2019-05-14T09:35:39.158Z,16.80
2019-05-14T09:36:44.633Z,16.60
2019-05-14T09:37:51.329Z,16.90
2019-05-14T09:38:58.199Z,17.00
2019-05-14T09:40:01.613Z,17.40
2019-05-14T09:41:12.281Z,18.00
2019-05-14T09:42:13.021Z,18.20
2019-05-14T09:43:18.220Z,18.20
2019-05-14T09:44:22.680Z,18.00
2019-05-14T09:45:29.034Z,17.80
2019-05-14T09:46:35.189Z,17.50
2019-05-14T09:47:40.087Z,16.90
2019-05-14T09:48:44.541Z,16.30
2019-05-14T09:49:49.455Z,16.00
2019-05-14T09:50:53.926Z,15.70
2019-05-14T09:51:58.841Z,15.70
2019-05-14T09:53:03.170Z,15.60
2019-05-14T09:54:08.707Z,15.30
2019-05-14T09:55:13.775Z,15.20
2019-05-14T09:56:19.007Z,15.00
2019-05-14T09:57:23.583Z,14.90
2019-05-14T09:58:28.647Z,14.70
2019-05-14T09:59:32.979Z,14.50
2019-05-14T10:00:38.974Z,14.40
2019-05-14T10:01:43.635Z,14.40
2019-05-14T10:02:49.456Z,14.20
2019-05-14T10:03:54.084Z,14.10
2019-05-14T10:04:59.780Z,14.10
2019-05-14T10:06:04.358Z,14.10
2019-05-14T10:07:09.349Z,14.20
2019-05-14T10:08:14.311Z,14.40
2019-05-14T10:09:19.243Z,14.60
2019-05-14T10:10:23.580Z,14.90
2019-05-14T10:11:28.909Z,15.30
2019-05-14T10:12:39.500Z,15.30
2019-05-14T10:13:41.134Z,15.20
2019-05-14T10:14:45.673Z,15.00
2019-05-14T10:15:50.724Z,14.80
2019-05-14T10:16:58.267Z,14.40
2019-05-14T10:18:03.152Z,14.30
2019-05-14T10:19:07.748Z,14.20
2019-05-14T10:20:13.324Z,14.10
2019-05-14T10:21:18.938Z,14.00
2019-05-14T10:22:24.188Z,14.00
2019-05-14T10:23:28.673Z,13.90
2019-05-14T10:24:33.608Z,14.00
2019-05-14T10:25:41.788Z,13.90
2019-05-14T10:26:44.683Z,14.00
2019-05-14T10:27:49.118Z,14.10
2019-05-14T10:28:54.088Z,14.20
2019-05-14T10:29:58.835Z,14.30
2019-05-14T10:31:04.189Z,14.50
2019-05-14T10:32:08.905Z,14.40
2019-05-14T10:33:17.929Z,14.50
2019-05-14T10:34:21.870Z,14.50
2019-05-14T10:35:28.599Z,14.50
2019-05-14T10:36:32.957Z,14.50
2019-05-14T10:37:40.099Z,14.40
2019-05-14T10:38:44.244Z,14.50
2019-05-14T10:39:49.270Z,14.40
2019-05-14T10:40:53.724Z,14.50
2019-05-14T10:41:59.723Z,14.50
2019-05-14T10:43:04.117Z,14.50
2019-05-14T10:44:09.347Z,14.50
2019-05-14T10:45:14.701Z,14.60
2019-05-14T10:46:21.423Z,14.70
2019-05-14T10:47:25.814Z,14.70
2019-05-14T10:48:32.844Z,14.70
2019-05-14T10:49:38.625Z,14.50
2019-05-14T10:50:56.160Z,14.40
2019-05-14T10:51:50.502Z,14.10
2019-05-14T10:52:55.623Z,14.10
2019-05-14T10:54:00.109Z,13.90
2019-05-14T10:55:05.235Z,13.80
2019-05-14T10:56:11.329Z,13.90
2019-05-14T10:57:18.351Z,13.90
2019-05-14T10:58:22.574Z,14.00
2019-05-14T10:59:29.373Z,14.00
2019-05-14T11:00:35.363Z,14.10
2019-05-14T11:01:40.354Z,14.10
2019-05-14T11:02:46.426Z,14.10
2019-05-14T11:03:51.415Z,14.00
2019-05-14T11:04:55.732Z,13.90
2019-05-14T11:06:00.770Z,14.00
2019-05-14T11:07:05.176Z,14.00
2019-05-14T11:08:11.963Z,14.10
2019-05-14T11:09:18.116Z,14.20
2019-05-14T11:10:23.277Z,14.20
2019-05-14T11:11:29.050Z,14.20
2019-05-14T11:12:34.052Z,14.10
2019-05-14T11:13:39.400Z,14.10
2019-05-14T11:14:44.667Z,14.00
2019-05-14T11:15:49.591Z,14.00
2019-05-14T11:16:54.946Z,14.00
2019-05-14T11:17:59.572Z,14.00
2019-05-14T11:19:04.956Z,13.90
2019-05-14T11:20:11.715Z,14.00
2019-05-14T11:21:25.758Z,14.30
2019-05-14T11:22:23.661Z,14.40
2019-05-14T11:23:29.706Z,14.40
2019-05-14T11:24:38.308Z,14.40
2019-05-14T11:25:42.438Z,14.30
2019-05-14T11:26:48.717Z,14.10
2019-05-14T11:27:58.446Z,14.00
2019-05-14T11:29:01.984Z,14.00
2019-05-14T11:30:08.884Z,14.00
2019-05-14T11:31:13.936Z,14.00
2019-05-14T11:32:19.101Z,14.10
2019-05-14T11:33:25.435Z,14.10
2019-05-14T11:34:30.464Z,14.30
2019-05-14T11:35:34.957Z,14.30
2019-05-14T11:36:39.886Z,14.20
2019-05-14T11:37:44.291Z,14.20
2019-05-14T11:38:50.607Z,14.10
2019-05-14T11:39:57.961Z,14.10
2019-05-14T11:41:02.869Z,14.20
2019-05-14T11:42:08.486Z,14.10
2019-05-14T11:43:14.178Z,14.10
2019-05-14T11:44:18.728Z,14.20
2019-05-14T11:45:23.997Z,14.30
2019-05-14T11:46:42.289Z,14.30
2019-05-14T11:47:34.972Z,14.30
2019-05-14T11:48:39.528Z,14.30
2019-05-14T11:49:44.591Z,14.50
2019-05-14T11:50:49.465Z,14.50
2019-05-14T11:52:04.226Z,14.50
2019-05-14T11:53:00.796Z,14.60
2019-05-14T11:54:05.816Z,14.70
2019-05-14T11:55:12.473Z,14.90
2019-05-14T11:56:19.492Z,15.00
2019-05-14T11:57:25.341Z,14.90
2019-05-14T11:58:30.683Z,14.80
2019-05-14T11:59:35.101Z,14.90
2019-05-14T12:00:40.062Z,15.00
2019-05-14T12:01:44.550Z,15.00
2019-05-14T12:02:49.698Z,15.00
2019-05-14T12:03:55.463Z,15.10
2019-05-14T12:05:00.430Z,15.20
2019-05-14T12:06:05.113Z,15.20
2019-05-14T12:07:13.218Z,15.20
2019-05-14T12:08:18.526Z,15.10
2019-05-14T12:09:23.722Z,15.10
2019-05-14T12:10:29.272Z,15.00
2019-05-14T12:11:34.289Z,14.90
2019-05-14T12:12:38.644Z,14.80
2019-05-14T12:13:43.650Z,14.80
2019-05-14T12:14:48.453Z,14.70
2019-05-14T12:15:53.626Z,14.80
2019-05-14T12:16:59.925Z,14.70
2019-05-14T12:18:04.754Z,14.70
2019-05-14T12:19:11.939Z,14.60
2019-05-14T12:20:16.407Z,14.60
2019-05-14T12:21:20.930Z,14.70
2019-05-14T12:22:28.425Z,14.80
2019-05-14T12:23:31.988Z,14.90
2019-05-14T12:24:38.732Z,15.00
2019-05-14T12:25:43.274Z,14.90
2019-05-14T12:26:49.077Z,15.10
2019-05-14T12:27:53.812Z,15.00
2019-05-14T12:28:59.468Z,14.90
2019-05-14T12:30:04.557Z,14.70
2019-05-14T12:31:09.704Z,14.70
2019-05-14T12:32:14.329Z,14.60
2019-05-14T12:33:19.876Z,14.50
2019-05-14T12:34:29.234Z,14.50
2019-05-14T12:35:32.905Z,14.40
2019-05-14T12:36:38.925Z,14.40
2019-05-14T12:37:44.043Z,14.40
2019-05-14T12:38:48.529Z,14.40
2019-05-14T12:39:53.409Z,14.50
2019-05-14T12:40:58.547Z,14.60
2019-05-14T12:42:03.584Z,14.70
2019-05-14T12:43:09.617Z,14.80
2019-05-14T12:44:14.939Z,14.90
2019-05-14T12:45:19.632Z,14.90
2019-05-14T12:46:24.593Z,14.90
2019-05-14T12:47:29.167Z,14.90
2019-05-14T12:48:38.651Z,14.90
2019-05-14T12:49:42.104Z,14.90
2019-05-14T12:50:48.860Z,14.80
2019-05-14T12:51:53.252Z,14.70
2019-05-14T12:52:58.838Z,14.70
2019-05-14T12:54:03.374Z,14.80
2019-05-14T12:55:10.263Z,14.70
2019-05-14T12:56:14.900Z,14.70
2019-05-14T12:57:19.821Z,14.80
2019-05-14T12:58:24.230Z,15.00
2019-05-14T12:59:29.112Z,15.10
2019-05-14T13:00:33.735Z,15.20
2019-05-14T13:01:38.820Z,15.30
2019-05-14T13:02:43.240Z,15.30
2019-05-14T13:03:48.580Z,15.40
2019-05-14T13:04:53.164Z,15.60
2019-05-14T13:05:59.284Z,15.70
2019-05-14T13:07:03.717Z,15.60
2019-05-14T13:08:11.466Z,15.40
2019-05-14T13:09:18.147Z,15.30
2019-05-14T13:10:21.766Z,15.20
2019-05-14T13:11:26.083Z,15.10
2019-05-14T13:12:31.024Z,15.10
2019-05-14T13:13:35.402Z,15.20
2019-05-14T13:14:40.350Z,15.20
2019-05-14T13:15:44.713Z,15.30
2019-05-14T13:16:49.681Z,15.30
2019-05-14T13:17:54.054Z,15.30
2019-05-14T13:18:59.886Z,15.30
2019-05-14T13:20:04.888Z,15.40
2019-05-14T13:21:29.175Z,15.40
2019-05-14T13:22:42.335Z,15.40
2019-05-14T13:23:40.620Z,15.50
2019-05-14T13:24:45.081Z,15.60
2019-05-14T13:25:50.145Z,15.60
2019-05-14T13:26:54.597Z,15.70
2019-05-14T13:27:59.603Z,15.50
2019-05-14T13:29:07.481Z,15.40
2019-05-14T13:30:11.446Z,15.30
2019-05-14T13:31:18.389Z,15.20
2019-05-14T13:32:22.908Z,15.20
2019-05-14T13:33:28.491Z,15.10
2019-05-14T13:34:33.736Z,15.20
2019-05-14T13:35:38.898Z,15.30
2019-05-14T13:36:45.043Z,15.30
2019-05-14T13:37:49.765Z,15.40
2019-05-14T13:38:54.682Z,15.50
2019-05-14T13:39:59.322Z,15.60
2019-05-14T13:41:04.467Z,15.60
2019-05-14T13:42:11.885Z,15.60
2019-05-14T13:43:18.832Z,15.70
2019-05-14T13:44:25.134Z,15.70
2019-05-14T13:45:30.639Z,15.80
2019-05-14T13:46:35.351Z,15.90
2019-05-14T13:47:40.291Z,15.80
2019-05-14T13:48:45.786Z,15.80
2019-05-14T13:49:51.221Z,15.80
2019-05-14T13:50:55.674Z,15.70
2019-05-14T13:52:02.009Z,15.70
2019-05-14T13:53:09.433Z,15.60
2019-05-14T13:54:13.483Z,15.40
2019-05-14T13:55:19.394Z,15.20
2019-05-14T13:56:24.691Z,15.00
2019-05-14T13:57:31.114Z,15.10
2019-05-14T13:58:36.148Z,15.10
2019-05-14T13:59:44.093Z,15.10
2019-05-14T14:00:51.515Z,15.10
2019-05-14T14:01:55.037Z,15.10
2019-05-14T14:03:00.294Z,15.20
2019-05-14T14:04:11.583Z,15.20
2019-05-14T14:05:13.456Z,15.40
2019-05-14T14:06:20.776Z,15.40
2019-05-14T14:07:24.608Z,15.40
2019-05-14T14:08:29.385Z,15.40
2019-05-14T14:09:34.412Z,15.40
2019-05-14T14:10:45.328Z,15.50
2019-05-14T14:11:48.258Z,15.60
2019-05-14T14:12:52.813Z,15.80